In Rescue
 
Open Full Screen Window  High Contrast Mode
Wind Gusting 00 knots
05
October 29, 2020 11:46 PM EDT
Weather Information
Wind Direction
  020 °
Wind Speed
  05 kt (6 mph)
Wind Gust
  00 kt (0 mph)
Altimeter
30.08 in
Visibility
10 SM
Temperature
-03° C
27° F
Dewpoint
-08° C
18° F
Humidity
69%
1hr Rain Fall
00.00 in.
24hr Rain Fall
00.00 in.
Sky Condition
Overcast @ 2,400 ft
MVFR

METAR KDRM 300346Z AUTO 02005KT 10SM OVC024 M03/M08 A3008 RMK AO2 T10351077

FAA Disclaimer: The data displayed is for advisory purposes only and is not to be used for flight planning or operations.